Keegan Foss — WCW5595 — position and weather

sailwx.info

Track history (hours):
 
Tides and Currents Weather Stations Pressure Air Temp Water Temp Dewpoint Dewpoint Depression Visibility Wind Speed Wind Dir Waves Ship Positions

Keegan Foss

Owner: FOSS MARITIME CO, SEATTLE, WA. More information available from US FCC via Universal Licensing System and Coast Guard Vessel Documentation Center.

Last reported at 2018-Jun-20 23:00 UTC. Time now 2018-Jun-20 23:08 UTC.
Position N 37°54' W 122°22'.

Length 31 m; draft 3.6 m.

Type: Tug. MMSI: 366979330.

Date/timePositionNaut miles runAvg speedWind from/ knotsBaromVisibWave heightAir tempDewpointWater temp
2018-Jun-20 23:00N 37°54' W 122°22'0 0.8
2018-Jun-20 22:30N 37°55' W 122°22'0 1.0
2018-Jun-20 22:00N 37°54' W 122°22'3 6.4
2018-Jun-20 21:30N 37°56' W 122°25'0 0.4
2018-Jun-20 21:00N 37°55' W 122°26'2 3.9
2018-Jun-20 20:30N 37°54' W 122°25'2 4.2
2018-Jun-20 20:00N 37°54' W 122°22'0 0.0
2018-Jun-20 18:31N 37°54' W 122°22'0 0.0
2018-Jun-20 18:13N 37°54' W 122°22'0 0.0
2018-Jun-20 16:37N 37°54' W 122°22'0 0.0
2018-Jun-20 16:27N 37°54' W 122°22'2 4.6
2018-Jun-20 16:00N 37°55' W 122°25'0 0.0
2018-Jun-20 15:13N 37°55' W 122°25'0 0.0
2018-Jun-20 14:55N 37°55' W 122°25'0 0.0
2018-Jun-20 14:28N 37°55' W 122°25'0 0.0
2018-Jun-20 13:58N 37°55' W 122°25'0 0.1
2018-Jun-20 13:30N 37°55' W 122°25'0 0.3
2018-Jun-20 13:00N 37°55' W 122°25'0 0.6
2018-Jun-20 12:30N 37°55' W 122°25'2 3.6
2018-Jun-20 11:56N 37°54' W 122°22'0 0.0
2018-Jun-20 11:26N 37°54' W 122°22'0 0.0
2018-Jun-20 10:59N 37°54' W 122°22'0 0.0
2018-Jun-20 10:29N 37°54' W 122°22'0 0.0
2018-Jun-20 09:53N 37°54' W 122°22'0 0.0
2018-Jun-20 09:14N 37°54' W 122°22'0 0.0
2018-Jun-20 05:20N 37°54' W 122°22'0 0.0
2018-Jun-20 04:50N 37°54' W 122°22'0 0.0
2018-Jun-20 04:26N 37°54' W 122°22'0 0.0
2018-Jun-20 03:56N 37°54' W 122°22'0 0.0
2018-Jun-20 03:29N 37°54' W 122°22'0 0.0
2018-Jun-20 02:56N 37°54' W 122°22'0 0.0
2018-Jun-20 02:26N 37°54' W 122°22'0 0.0
2018-Jun-20 01:59N 37°54' W 122°22'0 0.0
2018-Jun-20 01:26N 37°54' W 122°22'0 0.0
2018-Jun-20 00:59N 37°54' W 122°22'0 0.0
2018-Jun-20 00:29N 37°54' W 122°22'0 0.0
2018-Jun-19 23:59N 37°54' W 122°22'0 0.0
2018-Jun-19 23:11N 37°54' W 122°22'0 0.6
2018-Jun-19 23:00N 37°54' W 122°22'1 1.6
2018-Jun-19 22:30N 37°55' W 122°22'0 0.2
2018-Jun-19 21:58N 37°55' W 122°22'0 0.0
2018-Jun-19 21:30N 37°55' W 122°22'2 3.8
2018-Jun-19 21:00N 37°55' W 122°24'1 1.9
2018-Jun-19 20:30N 37°55' W 122°25'1 2.5
2018-Jun-19 20:00N 37°54' W 122°25'1 1.5
2018-Jun-19 19:30N 37°54' W 122°24'2 2.9
2018-Jun-19 18:57N 37°54' W 122°22'0 0.0
2018-Jun-19 18:15N 37°54' W 122°22'0 0.0
2018-Jun-19 17:51N 37°54' W 122°22'0 0.0
2018-Jun-19 17:27N 37°54' W 122°22'0 0.0
2018-Jun-19 16:57N 37°54' W 122°22'0 0.0
2018-Jun-19 16:09N 37°54' W 122°22'0 0.0
2018-Jun-19 15:57N 37°54' W 122°22'0 0.0
2018-Jun-19 15:27N 37°54' W 122°22'0 0.0
2018-Jun-19 14:39N 37°54' W 122°22'0 0.0
2018-Jun-19 14:27N 37°54' W 122°22'0 0.0
2018-Jun-19 13:03N 37°54' W 122°22'0 0.0
2018-Jun-19 12:39N 37°54' W 122°22'0 0.0
2018-Jun-19 11:21N 37°54' W 122°22'0 0.0
2018-Jun-19 10:33N 37°54' W 122°22'0 0.0
2018-Jun-19 10:30N 37°54' W 122°22'0 0.0
2018-Jun-19 09:45N 37°54' W 122°22'0 0.0
2018-Jun-19 09:15N 37°54' W 122°22'0 0.0
2018-Jun-19 08:51N 37°54' W 122°22'0 0.0
2018-Jun-19 08:18N 37°54' W 122°22'0 0.3
2018-Jun-19 07:57N 37°54' W 122°22'2 3.9
2018-Jun-19 07:30N 37°54' W 122°24'4 7.2
2018-Jun-19 07:00N 37°50' W 122°22'3 6.8
2018-Jun-19 06:30N 37°48' W 122°19'0 0.0
2018-Jun-19 06:00N 37°48' W 122°19'0 0.0
2018-Jun-19 05:30N 37°48' W 122°19'0 0.0
2018-Jun-19 05:00N 37°48' W 122°19'0 0.0
2018-Jun-19 04:30N 37°48' W 122°19'0 0.0
2018-Jun-19 04:00N 37°48' W 122°19'0 0.0
2018-Jun-19 03:30N 37°48' W 122°19'0 0.0
2018-Jun-19 03:01N 37°48' W 122°19'0 0.0
2018-Jun-19 02:30N 37°48' W 122°19'0 0.0
2018-Jun-19 02:01N 37°48' W 122°19'0 0.0
2018-Jun-19 01:30N 37°48' W 122°19'0 0.0
2018-Jun-19 01:00N 37°48' W 122°19'0 0.0
2018-Jun-19 00:30N 37°48' W 122°19'2 3.5
2018-Jun-19 00:00N 37°49' W 122°21'1 1.1
2018-Jun-18 23:30N 37°49' W 122°22'4 8.7
2018-Jun-18 23:00N 37°53' W 122°24'2 4.5
2018-Jun-18 22:30N 37°55' W 122°25'0 0.0
2018-Jun-18 21:58N 37°55' W 122°25'0 0.0
2018-Jun-18 21:24N 37°55' W 122°25'0 0.0
2018-Jun-18 21:00N 37°55' W 122°25'0 0.0
2018-Jun-18 20:30N 37°55' W 122°25'0 0.0
2018-Jun-18 20:00N 37°55' W 122°25'0 0.0
2018-Jun-18 19:30N 37°55' W 122°25'0 0.0
2018-Jun-18 19:00N 37°55' W 122°25'0 0.0
2018-Jun-18 18:29N 37°55' W 122°25'0 0.0
2018-Jun-18 18:00N 37°55' W 122°25'0 0.0
2018-Jun-18 17:27N 37°55' W 122°25'0 0.0
2018-Jun-18 16:57N 37°55' W 122°25'0 0.0
2018-Jun-18 16:30N 37°55' W 122°25'2 4.0
2018-Jun-18 16:00N 37°54' W 122°22'0 0.1
2018-Jun-18 15:06N 37°54' W 122°22'0 0.0
2018-Jun-18 15:00N 37°54' W 122°22'0 0.0
2018-Jun-18 11:21N 37°54' W 122°22'0 0.0
2018-Jun-18 11:00N 37°54' W 122°22'0 0.0
2018-Jun-18 10:27N 37°54' W 122°22'0 0.0
2018-Jun-18 09:45N 37°54' W 122°22'0 0.0
2018-Jun-18 09:27N 37°54' W 122°22'0 0.0
2018-Jun-18 05:57N 37°54' W 122°22'0 0.0
2018-Jun-18 05:30N 37°54' W 122°22'0 0.0
2018-Jun-18 04:48N 37°54' W 122°22'0 0.0
2018-Jun-18 04:24N 37°54' W 122°22'0 0.0
2018-Jun-18 03:54N 37°54' W 122°22'0 0.0
2018-Jun-18 03:21N 37°54' W 122°22'0 0.0
2018-Jun-18 03:00N 37°54' W 122°22'0 0.0
2018-Jun-18 02:30N 37°54' W 122°22'0 0.0
2018-Jun-18 01:39N 37°54' W 122°22'0 0.0
2018-Jun-18 01:15N 37°54' W 122°22'0 0.0
2018-Jun-18 00:33N 37°54' W 122°22'0 0.0
2018-Jun-18 00:21N 37°54' W 122°22'0 0.0
2018-Jun-17 23:51N 37°54' W 122°22'0 0.0
2018-Jun-17 22:33N 37°54' W 122°22'0 0.0
2018-Jun-17 22:09N 37°54' W 122°22'0 0.0
2018-Jun-17 21:42N 37°54' W 122°22'0 0.0
2018-Jun-17 21:12N 37°54' W 122°22'0 0.0
2018-Jun-17 20:51N 37°54' W 122°22'0 0.0
2018-Jun-17 20:24N 37°54' W 122°22'0 0.0
2018-Jun-17 20:00N 37°54' W 122°22'0 0.0
2018-Jun-17 18:54N 37°54' W 122°22'0 0.0
2018-Jun-17 18:30N 37°54' W 122°22'0 0.0
2018-Jun-17 18:00N 37°54' W 122°22'0 0.0
2018-Jun-17 17:30N 37°54' W 122°22'0 0.0
2018-Jun-17 17:00N 37°54' W 122°22'0 1.0
2018-Jun-17 16:30N 37°55' W 122°22'3 5.4
2018-Jun-17 16:00N 37°55' W 122°25'0 1.0
2018-Jun-17 15:29N 37°55' W 122°25'2 4.1
2018-Jun-17 15:00N 37°54' W 122°22'0 0.0
2018-Jun-17 14:25N 37°54' W 122°22'0 0.0
2018-Jun-17 13:55N 37°54' W 122°22'0 0.0
2018-Jun-17 13:25N 37°54' W 122°22'0 0.0
2018-Jun-17 12:49N 37°54' W 122°22'0 0.0
2018-Jun-17 12:25N 37°54' W 122°22'0 0.0
2018-Jun-17 11:49N 37°54' W 122°22'0 0.0
2018-Jun-17 11:19N 37°54' W 122°22'0 0.0
2018-Jun-17 10:55N 37°54' W 122°22'0 0.0
2018-Jun-17 10:28N 37°54' W 122°22'0 0.0
2018-Jun-17 09:55N 37°54' W 122°22'0 0.0
2018-Jun-17 09:25N 37°54' W 122°22'0 0.0
2018-Jun-17 08:55N 37°54' W 122°22'0 0.0
2018-Jun-17 08:13N 37°54' W 122°22'0 0.0
2018-Jun-17 07:55N 37°54' W 122°22'0 0.0
2018-Jun-17 07:22N 37°54' W 122°22'0 0.0
2018-Jun-17 06:55N 37°54' W 122°22'0 0.0
2018-Jun-17 06:19N 37°54' W 122°22'0 0.0
2018-Jun-17 05:55N 37°54' W 122°22'0 0.0
2018-Jun-17 05:25N 37°54' W 122°22'0 0.0
2018-Jun-17 04:49N 37°54' W 122°22'0 0.0
2018-Jun-17 04:13N 37°54' W 122°22'0 0.0
2018-Jun-17 03:49N 37°54' W 122°22'0 0.0
2018-Jun-17 03:25N 37°54' W 122°22'0 0.0
2018-Jun-17 02:55N 37°54' W 122°22'0 0.0
2018-Jun-17 02:01N 37°54' W 122°22'0 0.0
2018-Jun-17 01:55N 37°54' W 122°22'0 0.0
2018-Jun-17 01:28N 37°54' W 122°22'0 0.0
2018-Jun-17 00:49N 37°54' W 122°22'0 0.0
2018-Jun-17 00:25N 37°54' W 122°22'0 0.0
2018-Jun-16 23:55N 37°54' W 122°22'0 0.0
2018-Jun-16 23:28N 37°54' W 122°22'0 0.0
2018-Jun-16 22:58N 37°54' W 122°22'0 0.0
2018-Jun-16 22:28N 37°54' W 122°22'0 0.0
2018-Jun-16 21:55N 37°54' W 122°22'0 0.0
2018-Jun-16 21:28N 37°54' W 122°22'2 4.0
2018-Jun-16 20:59N 37°55' W 122°25'0 1.0
2018-Jun-16 20:30N 37°55' W 122°25'2 4.5
2018-Jun-16 20:00N 37°54' W 122°22'1 1.4
2018-Jun-16 19:30N 37°55' W 122°22'0 0.2
2018-Jun-16 19:00N 37°55' W 122°22'0 0.0
2018-Jun-16 18:30N 37°55' W 122°22'0 0.0
2018-Jun-16 18:00N 37°55' W 122°22'0 0.0
2018-Jun-16 17:30N 37°55' W 122°22'0 0.0
2018-Jun-16 17:00N 37°55' W 122°22'0 0.5
2018-Jun-16 16:30N 37°55' W 122°22'0 0.6
2018-Jun-16 16:00N 37°55' W 122°22'1 1.7
2018-Jun-16 15:28N 37°54' W 122°22'0 0.0
2018-Jun-16 14:58N 37°54' W 122°22'0 0.0
2018-Jun-16 14:28N 37°54' W 122°22'0 0.0
2018-Jun-16 13:58N 37°54' W 122°22'0 0.0
2018-Jun-16 13:25N 37°54' W 122°22'0 0.0
2018-Jun-16 11:58N 37°54' W 122°22'0 0.0
2018-Jun-16 11:28N 37°54' W 122°22'0 0.0
2018-Jun-16 10:52N 37°54' W 122°22'0 0.0
2018-Jun-16 10:28N 37°54' W 122°22'0 0.0
2018-Jun-16 09:58N 37°54' W 122°22'0 0.0
2018-Jun-16 09:28N 37°54' W 122°22'0 0.0
2018-Jun-16 08:58N 37°54' W 122°22'0 0.0
2018-Jun-16 08:28N 37°54' W 122°22'0 0.0
2018-Jun-16 07:58N 37°54' W 122°22'0 0.0
2018-Jun-16 07:25N 37°54' W 122°22'0 0.0
2018-Jun-16 06:58N 37°54' W 122°22'0 0.0
2018-Jun-16 06:25N 37°54' W 122°22'0 0.0
2018-Jun-16 05:58N 37°54' W 122°22'0 0.0
2018-Jun-16 05:25N 37°54' W 122°22'0 0.0
2018-Jun-16 04:55N 37°54' W 122°22'0 0.0
2018-Jun-16 04:25N 37°54' W 122°22'0 0.0
2018-Jun-16 03:55N 37°54' W 122°22'0 0.0
2018-Jun-16 03:28N 37°54' W 122°22'0 0.0
2018-Jun-16 02:58N 37°54' W 122°22'0 0.0
2018-Jun-16 02:28N 37°54' W 122°22'0 0.0
2018-Jun-16 01:58N 37°54' W 122°22'2 5.2
2018-Jun-16 01:30N 37°55' W 122°25'3 5.7
2018-Jun-16 01:01N 37°54' W 122°22'0 0.1
2018-Jun-16 00:30N 37°54' W 122°22'0 0.8
2018-Jun-16 00:00N 37°54' W 122°22'0 0.0
2018-Jun-15 23:30N 37°54' W 122°22'0 0.0
2018-Jun-15 23:00N 37°54' W 122°22'0 0.0
2018-Jun-15 22:30N 37°54' W 122°22'1 1.1
2018-Jun-15 22:01N 37°54' W 122°23'2 3.7
2018-Jun-15 21:30N 37°54' W 122°25'1 1.6
2018-Jun-15 20:59N 37°54' W 122°25'1 1.6
2018-Jun-15 20:28N 37°55' W 122°25'0 0.9
2018-Jun-15 20:00N 37°56' W 122°25'0 0.2
2018-Jun-15 19:30N 37°55' W 122°25'0 0.7
2018-Jun-15 19:00N 37°55' W 122°25'0 0.0
2018-Jun-15 18:30N 37°55' W 122°25'0 0.0
2018-Jun-15 18:00N 37°55' W 122°25'0 0.0
2018-Jun-15 17:30N 37°55' W 122°25'0 0.0
2018-Jun-15 17:01N 37°55' W 122°25'0 0.0
2018-Jun-15 16:26N 37°55' W 122°25'0 0.0
2018-Jun-15 15:58N 37°55' W 122°25'0 0.0
2018-Jun-15 13:54N 37°55' W 122°25'0 0.0
2018-Jun-15 13:26N 37°55' W 122°25'0 0.0
2018-Jun-15 13:00N 37°55' W 122°25'0 0.0
2018-Jun-15 12:28N 37°55' W 122°25'0 0.3
2018-Jun-15 12:01N 37°55' W 122°24'2 4.4
2018-Jun-15 11:30N 37°54' W 122°22'0 0.0
2018-Jun-15 11:00N 37°54' W 122°22'0 0.0
2018-Jun-15 10:31N 37°54' W 122°22'0 0.0
2018-Jun-15 10:00N 37°54' W 122°22'0 0.0
2018-Jun-15 09:30N 37°54' W 122°22'0 0.0
2018-Jun-15 09:01N 37°54' W 122°22'0 0.0
2018-Jun-15 08:30N 37°54' W 122°22'1 2.0
2018-Jun-15 08:00N 37°55' W 122°22'1 2.0
2018-Jun-15 07:30N 37°54' W 122°22'0 0.6
2018-Jun-15 07:00N 37°54' W 122°22'0 0.1
2018-Jun-15 06:02N 37°54' W 122°22'0 0.0
2018-Jun-15 05:56N 37°54' W 122°22'0 0.0
2018-Jun-15 05:26N 37°54' W 122°22'0 0.0
2018-Jun-15 04:56N 37°54' W 122°22'0 0.0
2018-Jun-15 04:20N 37°54' W 122°22'0 0.0
2018-Jun-15 03:59N 37°54' W 122°22'0 0.0
2018-Jun-15 03:26N 37°54' W 122°22'0 0.0
2018-Jun-15 02:59N 37°54' W 122°22'0 0.0
2018-Jun-15 02:26N 37°54' W 122°22'0 0.0
2018-Jun-15 01:56N 37°54' W 122°22'0 0.0
2018-Jun-15 01:26N 37°54' W 122°22'0 0.0
2018-Jun-15 00:56N 37°54' W 122°22'0 0.0
2018-Jun-15 00:26N 37°54' W 122°22'0 0.0
2018-Jun-14 23:56N 37°54' W 122°22'0 0.0
2018-Jun-14 23:23N 37°54' W 122°22'0 0.0
2018-Jun-14 22:56N 37°54' W 122°22'0 0.0
2018-Jun-14 22:26N 37°54' W 122°22'0 0.0
2018-Jun-14 21:56N 37°54' W 122°22'0 0.0
2018-Jun-14 21:26N 37°54' W 122°22'0 0.0
2018-Jun-14 20:56N 37°54' W 122°22'0 0.0
2018-Jun-14 20:11N 37°54' W 122°22'0 0.0
2018-Jun-14 19:59N 37°54' W 122°22'0 0.0
2018-Jun-14 19:23N 37°54' W 122°22'0 0.0
2018-Jun-14 18:56N 37°54' W 122°22'0 0.0
2018-Jun-14 18:26N 37°54' W 122°22'0 0.0
2018-Jun-14 17:56N 37°54' W 122°22'0 0.0
2018-Jun-14 17:26N 37°54' W 122°22'0 0.0
2018-Jun-14 16:38N 37°54' W 122°22'0 0.0
2018-Jun-14 16:26N 37°54' W 122°22'0 0.0
2018-Jun-14 15:56N 37°54' W 122°22'0 0.0
2018-Jun-14 15:29N 37°54' W 122°22'0 0.0
2018-Jun-14 14:54N 37°54' W 122°22'0 0.3
2018-Jun-14 14:30N 37°54' W 122°22'2 3.4
2018-Jun-14 14:00N 37°55' W 122°24'1 1.6
2018-Jun-14 13:30N 37°55' W 122°25'0 0.4
2018-Jun-14 12:59N 37°55' W 122°25'0 0.0
2018-Jun-14 12:22N 37°55' W 122°25'0 0.0
2018-Jun-14 11:59N 37°55' W 122°25'0 0.0
2018-Jun-14 11:30N 37°55' W 122°25'0 0.0
2018-Jun-14 11:00N 37°55' W 122°25'0 0.0
2018-Jun-14 10:28N 37°55' W 122°25'0 0.0
2018-Jun-14 10:00N 37°55' W 122°25'0 0.9
2018-Jun-14 09:30N 37°56' W 122°25'0 0.0
2018-Jun-14 09:00N 37°56' W 122°25'0 0.1
2018-Jun-14 08:30N 37°56' W 122°25'1 2.3
2018-Jun-14 08:00N 37°55' W 122°25'0 0.6
2018-Jun-14 07:24N 37°55' W 122°25'1 0.4
2018-Jun-14 05:22N 37°55' W 122°25'0 0.0
2018-Jun-14 04:56N 37°55' W 122°25'0 0.0
2018-Jun-14 04:29N 37°55' W 122°25'2 4.2
2018-Jun-14 04:00N 37°54' W 122°22'0 0.1
2018-Jun-14 03:28N 37°54' W 122°22'0 0.0
2018-Jun-14 02:55N 37°54' W 122°22'0 0.0
2018-Jun-14 02:28N 37°54' W 122°22'0 0.0
2018-Jun-14 01:58N 37°54' W 122°22'0 0.0
2018-Jun-14 01:28N 37°54' W 122°22'0 0.0
2018-Jun-14 00:58N 37°54' W 122°22'0 0.0
2018-Jun-14 00:28N 37°54' W 122°22'0 0.0
2018-Jun-13 23:58N 37°54' W 122°22'0 0.0
2018-Jun-13 23:28N 37°54' W 122°22'0 0.0
2018-Jun-13 22:58N 37°54' W 122°22'0 0.0
2018-Jun-13 22:28N 37°54' W 122°22'0 0.0
2018-Jun-13 21:58N 37°54' W 122°22'0 0.0
2018-Jun-13 21:28N 37°54' W 122°22'0 0.0
2018-Jun-13 20:58N 37°54' W 122°22'0 0.0
2018-Jun-13 20:28N 37°54' W 122°22'0 0.0
2018-Jun-13 19:58N 37°54' W 122°22'0 0.0
2018-Jun-13 19:16N 37°54' W 122°22'0 0.0
2018-Jun-13 18:58N 37°54' W 122°22'0 0.0
2018-Jun-13 18:28N 37°54' W 122°22'0 0.0
2018-Jun-13 17:55N 37°54' W 122°22'0 0.0
2018-Jun-13 17:28N 37°54' W 122°22'0 0.0
2018-Jun-13 16:55N 37°54' W 122°22'0 0.0
2018-Jun-13 16:28N 37°54' W 122°22'0 0.0
2018-Jun-13 15:58N 37°54' W 122°22'0 0.0
2018-Jun-13 15:28N 37°54' W 122°22'0 0.0
2018-Jun-13 14:58N 37°54' W 122°22'0 0.0
2018-Jun-13 14:28N 37°54' W 122°22'1 2.1
2018-Jun-13 14:00N 37°54' W 122°24'1 2.4
2018-Jun-13 13:29N 37°55' W 122°25'0 0.0
2018-Jun-13 12:59N 37°55' W 122°25'0 0.0
2018-Jun-13 12:30N 37°55' W 122°25'0 0.0
2018-Jun-13 12:00N 37°55' W 122°25'0 0.0
2018-Jun-13 11:30N 37°55' W 122°25'0 0.0
2018-Jun-13 11:00N 37°55' W 122°25'0 0.0
2018-Jun-13 10:30N 37°55' W 122°25'0 0.0
2018-Jun-13 09:53N 37°55' W 122°25'1 2.1
2018-Jun-13 09:30N 37°55' W 122°24'2 0.9
2018-Jun-13 07:49N 37°54' W 122°22'0 0.0
2018-Jun-13 06:37N 37°54' W 122°22'0 0.0
2018-Jun-13 06:19N 37°54' W 122°22'0 0.0
2018-Jun-13 05:58N 37°54' W 122°22'0 0.0
2018-Jun-13 05:28N 37°54' W 122°22'0 0.0
2018-Jun-13 04:58N 37°54' W 122°22'0 0.0
2018-Jun-13 04:13N 37°54' W 122°22'0 0.0
2018-Jun-13 03:58N 37°54' W 122°22'0 0.0
2018-Jun-13 03:28N 37°54' W 122°22'0 0.0
2018-Jun-13 02:13N 37°54' W 122°22'1 5.3
2018-Jun-13 02:00N 37°54' W 122°24'5 9.2
2018-Jun-13 01:30N 37°50' W 122°23'5 9.9
2018-Jun-13 01:00N 37°45' W 122°21'3 5.2
2018-Jun-13 00:30N 37°43' W 122°20'0 0.1
2018-Jun-12 23:59N 37°43' W 122°20'0 0.1
2018-Jun-12 23:30N 37°43' W 122°20'0 0.0
2018-Jun-12 23:00N 37°43' W 122°20'0 0.1
2018-Jun-12 22:30N 37°43' W 122°20'0 0.0
2018-Jun-12 22:00N 37°43' W 122°20'1 2.5
2018-Jun-12 21:30N 37°44' W 122°21'3 5.5
2018-Jun-12 21:00N 37°46' W 122°22'3 6.3
2018-Jun-12 20:30N 37°49' W 122°24'3 6.5
2018-Jun-12 19:59N 37°53' W 122°24'2 4.9
2018-Jun-12 19:30N 37°54' W 122°22'1 1.9
2018-Jun-12 18:58N 37°55' W 122°22'0 0.7
2018-Jun-12 18:30N 37°55' W 122°22'1 1.5
2018-Jun-12 18:00N 37°54' W 122°22'0 0.0
2018-Jun-12 17:28N 37°54' W 122°22'0 0.0
2018-Jun-12 16:58N 37°54' W 122°22'0 0.0
2018-Jun-12 16:23N 37°54' W 122°22'1 2.1
2018-Jun-12 16:01N 37°55' W 122°22'1 1.7
2018-Jun-12 15:30N 37°54' W 122°22'0 0.2
2018-Jun-12 15:00N 37°54' W 122°22'0 0.0
2018-Jun-12 14:28N 37°54' W 122°22'0 0.0
2018-Jun-12 13:55N 37°54' W 122°22'0 0.0
2018-Jun-12 13:28N 37°54' W 122°22'0 0.0
2018-Jun-12 12:58N 37°54' W 122°22'0 0.0
2018-Jun-12 12:25N 37°54' W 122°22'0 0.0
2018-Jun-12 11:55N 37°54' W 122°22'0 0.0
2018-Jun-12 11:25N 37°54' W 122°22'0 0.0
2018-Jun-12 10:58N 37°54' W 122°22'0 0.0
2018-Jun-12 10:28N 37°54' W 122°22'0 0.0
2018-Jun-12 09:58N 37°54' W 122°22'0 0.0
2018-Jun-12 09:28N 37°54' W 122°22'0 0.0
2018-Jun-12 08:58N 37°54' W 122°22'0 0.0
2018-Jun-12 08:25N 37°54' W 122°22'0 0.0
2018-Jun-12 07:55N 37°54' W 122°22'0 0.0
2018-Jun-12 07:25N 37°54' W 122°22'0 0.0
2018-Jun-12 06:58N 37°54' W 122°22'0 0.0
2018-Jun-12 06:25N 37°54' W 122°22'0 0.0
2018-Jun-12 05:58N 37°54' W 122°22'0 0.0
2018-Jun-12 05:28N 37°54' W 122°22'0 0.0
2018-Jun-12 04:55N 37°54' W 122°22'0 0.1
2018-Jun-12 04:28N 37°54' W 122°22'0 0.0
2018-Jun-12 03:58N 37°54' W 122°22'0 0.0
2018-Jun-12 03:25N 37°54' W 122°22'0 0.0
2018-Jun-12 02:55N 37°54' W 122°22'0 0.0
2018-Jun-12 02:28N 37°54' W 122°22'0 0.0
2018-Jun-12 01:55N 37°54' W 122°22'0 0.0
2018-Jun-12 01:28N 37°54' W 122°22'0 0.0
2018-Jun-12 00:58N 37°54' W 122°22'0 0.0
2018-Jun-12 00:25N 37°54' W 122°22'0 0.0
2018-Jun-11 23:58N 37°54' W 122°22'0 0.0
2018-Jun-11 23:28N 37°54' W 122°22'0 0.0
2018-Jun-11 22:58N 37°54' W 122°22'0 0.0
2018-Jun-11 22:28N 37°54' W 122°22'0 0.0
2018-Jun-11 21:58N 37°54' W 122°22'0 0.0
2018-Jun-11 21:28N 37°54' W 122°22'0 0.0
2018-Jun-11 20:49N 37°54' W 122°22'0 0.0
2018-Jun-11 20:28N 37°54' W 122°22'0 0.0
2018-Jun-11 19:58N 37°54' W 122°22'0 0.0
2018-Jun-11 19:19N 37°54' W 122°22'0 0.0
2018-Jun-11 18:58N 37°54' W 122°22'0 0.0
2018-Jun-11 18:28N 37°54' W 122°22'1 1.4
2018-Jun-11 18:00N 37°54' W 122°23'2 2.9
2018-Jun-11 17:29N 37°55' W 122°25'0 0.0
2018-Jun-11 16:50N 37°55' W 122°25'0 0.0
2018-Jun-11 16:23N 37°55' W 122°25'0 0.0
2018-Jun-11 15:59N 37°55' W 122°25'0 0.0
2018-Jun-11 15:26N 37°55' W 122°25'0 0.0
2018-Jun-11 14:11N 37°55' W 122°25'0 0.0
2018-Jun-11 08:17N 37°55' W 122°25'0 0.0
2018-Jun-11 07:59N 37°55' W 122°25'0 0.2
2018-Jun-11 07:30N 37°55' W 122°24'2 3.3
2018-Jun-11 06:55N 37°54' W 122°22'0 0.0
2018-Jun-11 06:25N 37°54' W 122°22'0 0.0
2018-Jun-11 05:55N 37°54' W 122°22'0 0.0
2018-Jun-11 05:25N 37°54' W 122°22'0 0.0
2018-Jun-11 04:58N 37°54' W 122°22'0 0.0
2018-Jun-11 04:25N 37°54' W 122°22'0 0.0
2018-Jun-11 03:58N 37°54' W 122°22'0 0.0
2018-Jun-11 03:28N 37°54' W 122°22'0 0.0
2018-Jun-11 02:52N 37°54' W 122°22'0 0.0
2018-Jun-11 02:28N 37°54' W 122°22'0 0.0
2018-Jun-11 01:58N 37°54' W 122°22'0 0.0
2018-Jun-11 01:28N 37°54' W 122°22'0 0.0
2018-Jun-11 00:58N 37°54' W 122°22'0 0.0
2018-Jun-11 00:28N 37°54' W 122°22'0 0.0
2018-Jun-10 23:52N 37°54' W 122°22'0 0.0
2018-Jun-10 23:28N 37°54' W 122°22'  
Track history (hours):
 
Tides and Currents Weather Stations Pressure Air Temp Water Temp Dewpoint Dewpoint Depression Visibility Wind Speed Wind Dir Waves Ship Positions

Keegan Foss

Owner: FOSS MARITIME CO, SEATTLE, WA. More information available from US FCC via Universal Licensing System and Coast Guard Vessel Documentation Center.

Last reported at 2018-Jun-20 23:00 UTC. Time now 2018-Jun-20 23:08 UTC.
Position N 37°54' W 122°22'.

Length 31 m; draft 3.6 m.

Type: Tug. MMSI: 366979330.

Date/timePositionNaut miles runAvg speedWind from/ knotsBaromVisibWave heightAir tempDewpointWater temp
2018-Jun-20 23:00N 37°54' W 122°22'0 0.8
2018-Jun-20 22:30N 37°55' W 122°22'0 1.0
2018-Jun-20 22:00N 37°54' W 122°22'3 6.4
2018-Jun-20 21:30N 37°56' W 122°25'0 0.4
2018-Jun-20 21:00N 37°55' W 122°26'2 3.9
2018-Jun-20 20:30N 37°54' W 122°25'2 4.2
2018-Jun-20 20:00N 37°54' W 122°22'0 0.0
2018-Jun-20 18:31N 37°54' W 122°22'0 0.0
2018-Jun-20 18:13N 37°54' W 122°22'0 0.0
2018-Jun-20 16:37N 37°54' W 122°22'0 0.0
2018-Jun-20 16:27N 37°54' W 122°22'2 4.6
2018-Jun-20 16:00N 37°55' W 122°25'0 0.0
2018-Jun-20 15:13N 37°55' W 122°25'0 0.0
2018-Jun-20 14:55N 37°55' W 122°25'0 0.0
2018-Jun-20 14:28N 37°55' W 122°25'0 0.0
2018-Jun-20 13:58N 37°55' W 122°25'0 0.1
2018-Jun-20 13:30N 37°55' W 122°25'0 0.3
2018-Jun-20 13:00N 37°55' W 122°25'0 0.6
2018-Jun-20 12:30N 37°55' W 122°25'2 3.6
2018-Jun-20 11:56N 37°54' W 122°22'0 0.0
2018-Jun-20 11:26N 37°54' W 122°22'0 0.0
2018-Jun-20 10:59N 37°54' W 122°22'0 0.0
2018-Jun-20 10:29N 37°54' W 122°22'0 0.0
2018-Jun-20 09:53N 37°54' W 122°22'0 0.0
2018-Jun-20 09:14N 37°54' W 122°22'0 0.0
2018-Jun-20 05:20N 37°54' W 122°22'0 0.0
2018-Jun-20 04:50N 37°54' W 122°22'0 0.0
2018-Jun-20 04:26N 37°54' W 122°22'0 0.0
2018-Jun-20 03:56N 37°54' W 122°22'0 0.0
2018-Jun-20 03:29N 37°54' W 122°22'0 0.0
2018-Jun-20 02:56N 37°54' W 122°22'0 0.0
2018-Jun-20 02:26N 37°54' W 122°22'0 0.0
2018-Jun-20 01:59N 37°54' W 122°22'0 0.0
2018-Jun-20 01:26N 37°54' W 122°22'0 0.0
2018-Jun-20 00:59N 37°54' W 122°22'0 0.0
2018-Jun-20 00:29N 37°54' W 122°22'0 0.0
2018-Jun-19 23:59N 37°54' W 122°22'0 0.0
2018-Jun-19 23:11N 37°54' W 122°22'0 0.6
2018-Jun-19 23:00N 37°54' W 122°22'1 1.6
2018-Jun-19 22:30N 37°55' W 122°22'0 0.2
2018-Jun-19 21:58N 37°55' W 122°22'0 0.0
2018-Jun-19 21:30N 37°55' W 122°22'2 3.8
2018-Jun-19 21:00N 37°55' W 122°24'1 1.9
2018-Jun-19 20:30N 37°55' W 122°25'1 2.5
2018-Jun-19 20:00N 37°54' W 122°25'1 1.5
2018-Jun-19 19:30N 37°54' W 122°24'2 2.9
2018-Jun-19 18:57N 37°54' W 122°22'0 0.0
2018-Jun-19 18:15N 37°54' W 122°22'0 0.0
2018-Jun-19 17:51N 37°54' W 122°22'0 0.0
2018-Jun-19 17:27N 37°54' W 122°22'0 0.0
2018-Jun-19 16:57N 37°54' W 122°22'0 0.0
2018-Jun-19 16:09N 37°54' W 122°22'0 0.0
2018-Jun-19 15:57N 37°54' W 122°22'0 0.0
2018-Jun-19 15:27N 37°54' W 122°22'0 0.0
2018-Jun-19 14:39N 37°54' W 122°22'0 0.0
2018-Jun-19 14:27N 37°54' W 122°22'0 0.0
2018-Jun-19 13:03N 37°54' W 122°22'0 0.0
2018-Jun-19 12:39N 37°54' W 122°22'0 0.0
2018-Jun-19 11:21N 37°54' W 122°22'0 0.0
2018-Jun-19 10:33N 37°54' W 122°22'0 0.0
2018-Jun-19 10:30N 37°54' W 122°22'0 0.0
2018-Jun-19 09:45N 37°54' W 122°22'0 0.0
2018-Jun-19 09:15N 37°54' W 122°22'0 0.0
2018-Jun-19 08:51N 37°54' W 122°22'0 0.0
2018-Jun-19 08:18N 37°54' W 122°22'0 0.3
2018-Jun-19 07:57N 37°54' W 122°22'2 3.9
2018-Jun-19 07:30N 37°54' W 122°24'4 7.2
2018-Jun-19 07:00N 37°50' W 122°22'3 6.8
2018-Jun-19 06:30N 37°48' W 122°19'0 0.0
2018-Jun-19 06:00N 37°48' W 122°19'0 0.0
2018-Jun-19 05:30N 37°48' W 122°19'0 0.0
2018-Jun-19 05:00N 37°48' W 122°19'0 0.0
2018-Jun-19 04:30N 37°48' W 122°19'0 0.0
2018-Jun-19 04:00N 37°48' W 122°19'0 0.0
2018-Jun-19 03:30N 37°48' W 122°19'0 0.0
2018-Jun-19 03:01N 37°48' W 122°19'0 0.0
2018-Jun-19 02:30N 37°48' W 122°19'0 0.0
2018-Jun-19 02:01N 37°48' W 122°19'0 0.0
2018-Jun-19 01:30N 37°48' W 122°19'0 0.0
2018-Jun-19 01:00N 37°48' W 122°19'0 0.0
2018-Jun-19 00:30N 37°48' W 122°19'2 3.5
2018-Jun-19 00:00N 37°49' W 122°21'1 1.1
2018-Jun-18 23:30N 37°49' W 122°22'4 8.7
2018-Jun-18 23:00N 37°53' W 122°24'2 4.5
2018-Jun-18 22:30N 37°55' W 122°25'0 0.0
2018-Jun-18 21:58N 37°55' W 122°25'0 0.0
2018-Jun-18 21:24N 37°55' W 122°25'0 0.0
2018-Jun-18 21:00N 37°55' W 122°25'0 0.0
2018-Jun-18 20:30N 37°55' W 122°25'0 0.0
2018-Jun-18 20:00N 37°55' W 122°25'0 0.0
2018-Jun-18 19:30N 37°55' W 122°25'0 0.0
2018-Jun-18 19:00N 37°55' W 122°25'0 0.0
2018-Jun-18 18:29N 37°55' W 122°25'0 0.0
2018-Jun-18 18:00N 37°55' W 122°25'0 0.0
2018-Jun-18 17:27N 37°55' W 122°25'0 0.0
2018-Jun-18 16:57N 37°55' W 122°25'0 0.0
2018-Jun-18 16:30N 37°55' W 122°25'2 4.0
2018-Jun-18 16:00N 37°54' W 122°22'0 0.1
2018-Jun-18 15:06N 37°54' W 122°22'0 0.0
2018-Jun-18 15:00N 37°54' W 122°22'0 0.0
2018-Jun-18 11:21N 37°54' W 122°22'0 0.0
2018-Jun-18 11:00N 37°54' W 122°22'0 0.0
2018-Jun-18 10:27N 37°54' W 122°22'0 0.0
2018-Jun-18 09:45N 37°54' W 122°22'0 0.0
2018-Jun-18 09:27N 37°54' W 122°22'0 0.0
2018-Jun-18 05:57N 37°54' W 122°22'0 0.0
2018-Jun-18 05:30N 37°54' W 122°22'0 0.0
2018-Jun-18 04:48N 37°54' W 122°22'0 0.0
2018-Jun-18 04:24N 37°54' W 122°22'0 0.0
2018-Jun-18 03:54N 37°54' W 122°22'0 0.0
2018-Jun-18 03:21N 37°54' W 122°22'0 0.0
2018-Jun-18 03:00N 37°54' W 122°22'0 0.0
2018-Jun-18 02:30N 37°54' W 122°22'0 0.0
2018-Jun-18 01:39N 37°54' W 122°22'0 0.0
2018-Jun-18 01:15N 37°54' W 122°22'0 0.0
2018-Jun-18 00:33N 37°54' W 122°22'0 0.0
2018-Jun-18 00:21N 37°54' W 122°22'0 0.0
2018-Jun-17 23:51N 37°54' W 122°22'0 0.0
2018-Jun-17 22:33N 37°54' W 122°22'0 0.0
2018-Jun-17 22:09N 37°54' W 122°22'0 0.0
2018-Jun-17 21:42N 37°54' W 122°22'0 0.0
2018-Jun-17 21:12N 37°54' W 122°22'0 0.0
2018-Jun-17 20:51N 37°54' W 122°22'0 0.0
2018-Jun-17 20:24N 37°54' W 122°22'0 0.0
2018-Jun-17 20:00N 37°54' W 122°22'0 0.0
2018-Jun-17 18:54N 37°54' W 122°22'0 0.0
2018-Jun-17 18:30N 37°54' W 122°22'0 0.0
2018-Jun-17 18:00N 37°54' W 122°22'0 0.0
2018-Jun-17 17:30N 37°54' W 122°22'0 0.0
2018-Jun-17 17:00N 37°54' W 122°22'0 1.0
2018-Jun-17 16:30N 37°55' W 122°22'3 5.4
2018-Jun-17 16:00N 37°55' W 122°25'0 1.0
2018-Jun-17 15:29N 37°55' W 122°25'2 4.1
2018-Jun-17 15:00N 37°54' W 122°22'0 0.0
2018-Jun-17 14:25N 37°54' W 122°22'0 0.0
2018-Jun-17 13:55N 37°54' W 122°22'0 0.0
2018-Jun-17 13:25N 37°54' W 122°22'0 0.0
2018-Jun-17 12:49N 37°54' W 122°22'0 0.0
2018-Jun-17 12:25N 37°54' W 122°22'0 0.0
2018-Jun-17 11:49N 37°54' W 122°22'0 0.0
2018-Jun-17 11:19N 37°54' W 122°22'0 0.0
2018-Jun-17 10:55N 37°54' W 122°22'0 0.0
2018-Jun-17 10:28N 37°54' W 122°22'0 0.0
2018-Jun-17 09:55N 37°54' W 122°22'0 0.0
2018-Jun-17 09:25N 37°54' W 122°22'0 0.0
2018-Jun-17 08:55N 37°54' W 122°22'0 0.0
2018-Jun-17 08:13N 37°54' W 122°22'0 0.0
2018-Jun-17 07:55N 37°54' W 122°22'0 0.0
2018-Jun-17 07:22N 37°54' W 122°22'0 0.0
2018-Jun-17 06:55N 37°54' W 122°22'0 0.0
2018-Jun-17 06:19N 37°54' W 122°22'0 0.0
2018-Jun-17 05:55N 37°54' W 122°22'0 0.0
2018-Jun-17 05:25N 37°54' W 122°22'0 0.0
2018-Jun-17 04:49N 37°54' W 122°22'0 0.0
2018-Jun-17 04:13N 37°54' W 122°22'0 0.0
2018-Jun-17 03:49N 37°54' W 122°22'0 0.0
2018-Jun-17 03:25N 37°54' W 122°22'0 0.0
2018-Jun-17 02:55N 37°54' W 122°22'0 0.0
2018-Jun-17 02:01N 37°54' W 122°22'0 0.0
2018-Jun-17 01:55N 37°54' W 122°22'0 0.0
2018-Jun-17 01:28N 37°54' W 122°22'0 0.0
2018-Jun-17 00:49N 37°54' W 122°22'0 0.0
2018-Jun-17 00:25N 37°54' W 122°22'0 0.0
2018-Jun-16 23:55N 37°54' W 122°22'0 0.0
2018-Jun-16 23:28N 37°54' W 122°22'0 0.0
2018-Jun-16 22:58N 37°54' W 122°22'0 0.0
2018-Jun-16 22:28N 37°54' W 122°22'0 0.0
2018-Jun-16 21:55N 37°54' W 122°22'0 0.0
2018-Jun-16 21:28N 37°54' W 122°22'2 4.0
2018-Jun-16 20:59N 37°55' W 122°25'0 1.0
2018-Jun-16 20:30N 37°55' W 122°25'2 4.5
2018-Jun-16 20:00N 37°54' W 122°22'1 1.4
2018-Jun-16 19:30N 37°55' W 122°22'0 0.2
2018-Jun-16 19:00N 37°55' W 122°22'0 0.0
2018-Jun-16 18:30N 37°55' W 122°22'0 0.0
2018-Jun-16 18:00N 37°55' W 122°22'0 0.0
2018-Jun-16 17:30N 37°55' W 122°22'0 0.0
2018-Jun-16 17:00N 37°55' W 122°22'0 0.5
2018-Jun-16 16:30N 37°55' W 122°22'0 0.6
2018-Jun-16 16:00N 37°55' W 122°22'1 1.7
2018-Jun-16 15:28N 37°54' W 122°22'0 0.0
2018-Jun-16 14:58N 37°54' W 122°22'0 0.0
2018-Jun-16 14:28N 37°54' W 122°22'0 0.0
2018-Jun-16 13:58N 37°54' W 122°22'0 0.0
2018-Jun-16 13:25N 37°54' W 122°22'0 0.0
2018-Jun-16 11:58N 37°54' W 122°22'0 0.0
2018-Jun-16 11:28N 37°54' W 122°22'0 0.0
2018-Jun-16 10:52N 37°54' W 122°22'0 0.0
2018-Jun-16 10:28N 37°54' W 122°22'0 0.0
2018-Jun-16 09:58N 37°54' W 122°22'0 0.0
2018-Jun-16 09:28N 37°54' W 122°22'0 0.0
2018-Jun-16 08:58N 37°54' W 122°22'0 0.0
2018-Jun-16 08:28N 37°54' W 122°22'0 0.0
2018-Jun-16 07:58N 37°54' W 122°22'0 0.0
2018-Jun-16 07:25N 37°54' W 122°22'0 0.0
2018-Jun-16 06:58N 37°54' W 122°22'0 0.0
2018-Jun-16 06:25N 37°54' W 122°22'0 0.0
2018-Jun-16 05:58N 37°54' W 122°22'0 0.0
2018-Jun-16 05:25N 37°54' W 122°22'0 0.0
2018-Jun-16 04:55N 37°54' W 122°22'0 0.0
2018-Jun-16 04:25N 37°54' W 122°22'0 0.0
2018-Jun-16 03:55N 37°54' W 122°22'0 0.0
2018-Jun-16 03:28N 37°54' W 122°22'0 0.0
2018-Jun-16 02:58N 37°54' W 122°22'0 0.0
2018-Jun-16 02:28N 37°54' W 122°22'0 0.0
2018-Jun-16 01:58N 37°54' W 122°22'2 5.2
2018-Jun-16 01:30N 37°55' W 122°25'3 5.7
2018-Jun-16 01:01N 37°54' W 122°22'0 0.1
2018-Jun-16 00:30N 37°54' W 122°22'0 0.8
2018-Jun-16 00:00N 37°54' W 122°22'0 0.0
2018-Jun-15 23:30N 37°54' W 122°22'0 0.0
2018-Jun-15 23:00N 37°54' W 122°22'0 0.0
2018-Jun-15 22:30N 37°54' W 122°22'1 1.1
2018-Jun-15 22:01N 37°54' W 122°23'2 3.7
2018-Jun-15 21:30N 37°54' W 122°25'1 1.6
2018-Jun-15 20:59N 37°54' W 122°25'1 1.6
2018-Jun-15 20:28N 37°55' W 122°25'0 0.9
2018-Jun-15 20:00N 37°56' W 122°25'0 0.2
2018-Jun-15 19:30N 37°55' W 122°25'0 0.7
2018-Jun-15 19:00N 37°55' W 122°25'0 0.0
2018-Jun-15 18:30N 37°55' W 122°25'0 0.0
2018-Jun-15 18:00N 37°55' W 122°25'0 0.0
2018-Jun-15 17:30N 37°55' W 122°25'0 0.0
2018-Jun-15 17:01N 37°55' W 122°25'0 0.0
2018-Jun-15 16:26N 37°55' W 122°25'0 0.0
2018-Jun-15 15:58N 37°55' W 122°25'0 0.0
2018-Jun-15 13:54N 37°55' W 122°25'0 0.0
2018-Jun-15 13:26N 37°55' W 122°25'0 0.0
2018-Jun-15 13:00N 37°55' W 122°25'0 0.0
2018-Jun-15 12:28N 37°55' W 122°25'0 0.3
2018-Jun-15 12:01N 37°55' W 122°24'2 4.4
2018-Jun-15 11:30N 37°54' W 122°22'0 0.0
2018-Jun-15 11:00N 37°54' W 122°22'0 0.0
2018-Jun-15 10:31N 37°54' W 122°22'0 0.0
2018-Jun-15 10:00N 37°54' W 122°22'0 0.0
2018-Jun-15 09:30N 37°54' W 122°22'0 0.0
2018-Jun-15 09:01N 37°54' W 122°22'0 0.0
2018-Jun-15 08:30N 37°54' W 122°22'1 2.0
2018-Jun-15 08:00N 37°55' W 122°22'1 2.0
2018-Jun-15 07:30N 37°54' W 122°22'0 0.6
2018-Jun-15 07:00N 37°54' W 122°22'0 0.1
2018-Jun-15 06:02N 37°54' W 122°22'0 0.0
2018-Jun-15 05:56N 37°54' W 122°22'0 0.0
2018-Jun-15 05:26N 37°54' W 122°22'0 0.0
2018-Jun-15 04:56N 37°54' W 122°22'0 0.0
2018-Jun-15 04:20N 37°54' W 122°22'0 0.0
2018-Jun-15 03:59N 37°54' W 122°22'0 0.0
2018-Jun-15 03:26N 37°54' W 122°22'0 0.0
2018-Jun-15 02:59N 37°54' W 122°22'0 0.0
2018-Jun-15 02:26N 37°54' W 122°22'0 0.0
2018-Jun-15 01:56N 37°54' W 122°22'0 0.0
2018-Jun-15 01:26N 37°54' W 122°22'0 0.0
2018-Jun-15 00:56N 37°54' W 122°22'0 0.0
2018-Jun-15 00:26N 37°54' W 122°22'0 0.0
2018-Jun-14 23:56N 37°54' W 122°22'0 0.0
2018-Jun-14 23:23N 37°54' W 122°22'0 0.0
2018-Jun-14 22:56N 37°54' W 122°22'0 0.0
2018-Jun-14 22:26N 37°54' W 122°22'0 0.0
2018-Jun-14 21:56N 37°54' W 122°22'0 0.0
2018-Jun-14 21:26N 37°54' W 122°22'0 0.0
2018-Jun-14 20:56N 37°54' W 122°22'0 0.0
2018-Jun-14 20:11N 37°54' W 122°22'0 0.0
2018-Jun-14 19:59N 37°54' W 122°22'0 0.0
2018-Jun-14 19:23N 37°54' W 122°22'0 0.0
2018-Jun-14 18:56N 37°54' W 122°22'0 0.0
2018-Jun-14 18:26N 37°54' W 122°22'0 0.0
2018-Jun-14 17:56N 37°54' W 122°22'0 0.0
2018-Jun-14 17:26N 37°54' W 122°22'0 0.0
2018-Jun-14 16:38N 37°54' W 122°22'0 0.0
2018-Jun-14 16:26N 37°54' W 122°22'0 0.0
2018-Jun-14 15:56N 37°54' W 122°22'0 0.0
2018-Jun-14 15:29N 37°54' W 122°22'0 0.0
2018-Jun-14 14:54N 37°54' W 122°22'0 0.3
2018-Jun-14 14:30N 37°54' W 122°22'2 3.4
2018-Jun-14 14:00N 37°55' W 122°24'1 1.6
2018-Jun-14 13:30N 37°55' W 122°25'0 0.4
2018-Jun-14 12:59N 37°55' W 122°25'0 0.0
2018-Jun-14 12:22N 37°55' W 122°25'0 0.0
2018-Jun-14 11:59N 37°55' W 122°25'0 0.0
2018-Jun-14 11:30N 37°55' W 122°25'0 0.0
2018-Jun-14 11:00N 37°55' W 122°25'0 0.0
2018-Jun-14 10:28N 37°55' W 122°25'0 0.0
2018-Jun-14 10:00N 37°55' W 122°25'0 0.9
2018-Jun-14 09:30N 37°56' W 122°25'0 0.0
2018-Jun-14 09:00N 37°56' W 122°25'0 0.1
2018-Jun-14 08:30N 37°56' W 122°25'1 2.3
2018-Jun-14 08:00N 37°55' W 122°25'0 0.6
2018-Jun-14 07:24N 37°55' W 122°25'1 0.4
2018-Jun-14 05:22N 37°55' W 122°25'0 0.0
2018-Jun-14 04:56N 37°55' W 122°25'0 0.0
2018-Jun-14 04:29N 37°55' W 122°25'2 4.2
2018-Jun-14 04:00N 37°54' W 122°22'0 0.1
2018-Jun-14 03:28N 37°54' W 122°22'0 0.0
2018-Jun-14 02:55N 37°54' W 122°22'0 0.0
2018-Jun-14 02:28N 37°54' W 122°22'0 0.0
2018-Jun-14 01:58N 37°54' W 122°22'0 0.0
2018-Jun-14 01:28N 37°54' W 122°22'0 0.0
2018-Jun-14 00:58N 37°54' W 122°22'0 0.0
2018-Jun-14 00:28N 37°54' W 122°22'0 0.0
2018-Jun-13 23:58N 37°54' W 122°22'0 0.0
2018-Jun-13 23:28N 37°54' W 122°22'0 0.0
2018-Jun-13 22:58N 37°54' W 122°22'0 0.0
2018-Jun-13 22:28N 37°54' W 122°22'0 0.0
2018-Jun-13 21:58N 37°54' W 122°22'0 0.0
2018-Jun-13 21:28N 37°54' W 122°22'0 0.0
2018-Jun-13 20:58N 37°54' W 122°22'0 0.0
2018-Jun-13 20:28N 37°54' W 122°22'0 0.0
2018-Jun-13 19:58N 37°54' W 122°22'0 0.0
2018-Jun-13 19:16N 37°54' W 122°22'0 0.0
2018-Jun-13 18:58N 37°54' W 122°22'0 0.0
2018-Jun-13 18:28N 37°54' W 122°22'0 0.0
2018-Jun-13 17:55N 37°54' W 122°22'0 0.0
2018-Jun-13 17:28N 37°54' W 122°22'0 0.0
2018-Jun-13 16:55N 37°54' W 122°22'0 0.0
2018-Jun-13 16:28N 37°54' W 122°22'0 0.0
2018-Jun-13 15:58N 37°54' W 122°22'0 0.0
2018-Jun-13 15:28N 37°54' W 122°22'0 0.0
2018-Jun-13 14:58N 37°54' W 122°22'0 0.0
2018-Jun-13 14:28N 37°54' W 122°22'1 2.1
2018-Jun-13 14:00N 37°54' W 122°24'1 2.4
2018-Jun-13 13:29N 37°55' W 122°25'0 0.0
2018-Jun-13 12:59N 37°55' W 122°25'0 0.0
2018-Jun-13 12:30N 37°55' W 122°25'0 0.0
2018-Jun-13 12:00N 37°55' W 122°25'0 0.0
2018-Jun-13 11:30N 37°55' W 122°25'0 0.0
2018-Jun-13 11:00N 37°55' W 122°25'0 0.0
2018-Jun-13 10:30N 37°55' W 122°25'0 0.0
2018-Jun-13 09:53N 37°55' W 122°25'1 2.1
2018-Jun-13 09:30N 37°55' W 122°24'2 0.9
2018-Jun-13 07:49N 37°54' W 122°22'0 0.0
2018-Jun-13 06:37N 37°54' W 122°22'0 0.0
2018-Jun-13 06:19N 37°54' W 122°22'0 0.0
2018-Jun-13 05:58N 37°54' W 122°22'0 0.0
2018-Jun-13 05:28N 37°54' W 122°22'0 0.0
2018-Jun-13 04:58N 37°54' W 122°22'0 0.0
2018-Jun-13 04:13N 37°54' W 122°22'0 0.0
2018-Jun-13 03:58N 37°54' W 122°22'0 0.0
2018-Jun-13 03:28N 37°54' W 122°22'0 0.0
2018-Jun-13 02:13N 37°54' W 122°22'1 5.3
2018-Jun-13 02:00N 37°54' W 122°24'5 9.2
2018-Jun-13 01:30N 37°50' W 122°23'5 9.9
2018-Jun-13 01:00N 37°45' W 122°21'3 5.2
2018-Jun-13 00:30N 37°43' W 122°20'0 0.1
2018-Jun-12 23:59N 37°43' W 122°20'0 0.1
2018-Jun-12 23:30N 37°43' W 122°20'0 0.0
2018-Jun-12 23:00N 37°43' W 122°20'0 0.1
2018-Jun-12 22:30N 37°43' W 122°20'0 0.0
2018-Jun-12 22:00N 37°43' W 122°20'1 2.5
2018-Jun-12 21:30N 37°44' W 122°21'3 5.5
2018-Jun-12 21:00N 37°46' W 122°22'3 6.3
2018-Jun-12 20:30N 37°49' W 122°24'3 6.5
2018-Jun-12 19:59N 37°53' W 122°24'2 4.9
2018-Jun-12 19:30N 37°54' W 122°22'1 1.9
2018-Jun-12 18:58N 37°55' W 122°22'0 0.7
2018-Jun-12 18:30N 37°55' W 122°22'1 1.5
2018-Jun-12 18:00N 37°54' W 122°22'0 0.0
2018-Jun-12 17:28N 37°54' W 122°22'0 0.0
2018-Jun-12 16:58N 37°54' W 122°22'0 0.0
2018-Jun-12 16:23N 37°54' W 122°22'1 2.1
2018-Jun-12 16:01N 37°55' W 122°22'1 1.7
2018-Jun-12 15:30N 37°54' W 122°22'0 0.2
2018-Jun-12 15:00N 37°54' W 122°22'0 0.0
2018-Jun-12 14:28N 37°54' W 122°22'0 0.0
2018-Jun-12 13:55N 37°54' W 122°22'0 0.0
2018-Jun-12 13:28N 37°54' W 122°22'0 0.0
2018-Jun-12 12:58N 37°54' W 122°22'0 0.0
2018-Jun-12 12:25N 37°54' W 122°22'0 0.0
2018-Jun-12 11:55N 37°54' W 122°22'0 0.0
2018-Jun-12 11:25N 37°54' W 122°22'0 0.0
2018-Jun-12 10:58N 37°54' W 122°22'0 0.0
2018-Jun-12 10:28N 37°54' W 122°22'0 0.0
2018-Jun-12 09:58N 37°54' W 122°22'0 0.0
2018-Jun-12 09:28N 37°54' W 122°22'0 0.0
2018-Jun-12 08:58N 37°54' W 122°22'0 0.0
2018-Jun-12 08:25N 37°54' W 122°22'0 0.0
2018-Jun-12 07:55N 37°54' W 122°22'0 0.0
2018-Jun-12 07:25N 37°54' W 122°22'0 0.0
2018-Jun-12 06:58N 37°54' W 122°22'0 0.0
2018-Jun-12 06:25N 37°54' W 122°22'0 0.0
2018-Jun-12 05:58N 37°54' W 122°22'0 0.0
2018-Jun-12 05:28N 37°54' W 122°22'0 0.0
2018-Jun-12 04:55N 37°54' W 122°22'0 0.1
2018-Jun-12 04:28N 37°54' W 122°22'0 0.0
2018-Jun-12 03:58N 37°54' W 122°22'0 0.0
2018-Jun-12 03:25N 37°54' W 122°22'0 0.0
2018-Jun-12 02:55N 37°54' W 122°22'0 0.0
2018-Jun-12 02:28N 37°54' W 122°22'0 0.0
2018-Jun-12 01:55N 37°54' W 122°22'0 0.0
2018-Jun-12 01:28N 37°54' W 122°22'0 0.0
2018-Jun-12 00:58N 37°54' W 122°22'0 0.0
2018-Jun-12 00:25N 37°54' W 122°22'0 0.0
2018-Jun-11 23:58N 37°54' W 122°22'0 0.0
2018-Jun-11 23:28N 37°54' W 122°22'0 0.0
2018-Jun-11 22:58N 37°54' W 122°22'0 0.0
2018-Jun-11 22:28N 37°54' W 122°22'0 0.0
2018-Jun-11 21:58N 37°54' W 122°22'0 0.0
2018-Jun-11 21:28N 37°54' W 122°22'0 0.0
2018-Jun-11 20:49N 37°54' W 122°22'0 0.0
2018-Jun-11 20:28N 37°54' W 122°22'0 0.0
2018-Jun-11 19:58N 37°54' W 122°22'0 0.0
2018-Jun-11 19:19N 37°54' W 122°22'0 0.0
2018-Jun-11 18:58N 37°54' W 122°22'0 0.0
2018-Jun-11 18:28N 37°54' W 122°22'1 1.4
2018-Jun-11 18:00N 37°54' W 122°23'2 2.9
2018-Jun-11 17:29N 37°55' W 122°25'0 0.0
2018-Jun-11 16:50N 37°55' W 122°25'0 0.0
2018-Jun-11 16:23N 37°55' W 122°25'0 0.0
2018-Jun-11 15:59N 37°55' W 122°25'0 0.0
2018-Jun-11 15:26N 37°55' W 122°25'0 0.0
2018-Jun-11 14:11N 37°55' W 122°25'0 0.0
2018-Jun-11 08:17N 37°55' W 122°25'0 0.0
2018-Jun-11 07:59N 37°55' W 122°25'0 0.2
2018-Jun-11 07:30N 37°55' W 122°24'2 3.3
2018-Jun-11 06:55N 37°54' W 122°22'0 0.0
2018-Jun-11 06:25N 37°54' W 122°22'0 0.0
2018-Jun-11 05:55N 37°54' W 122°22'0 0.0
2018-Jun-11 05:25N 37°54' W 122°22'0 0.0
2018-Jun-11 04:58N 37°54' W 122°22'0 0.0
2018-Jun-11 04:25N 37°54' W 122°22'0 0.0
2018-Jun-11 03:58N 37°54' W 122°22'0 0.0
2018-Jun-11 03:28N 37°54' W 122°22'0 0.0
2018-Jun-11 02:52N 37°54' W 122°22'0 0.0
2018-Jun-11 02:28N 37°54' W 122°22'0 0.0
2018-Jun-11 01:58N 37°54' W 122°22'0 0.0
2018-Jun-11 01:28N 37°54' W 122°22'0 0.0
2018-Jun-11 00:58N 37°54' W 122°22'0 0.0
2018-Jun-11 00:28N 37°54' W 122°22'0 0.0
2018-Jun-10 23:52N 37°54' W 122°22'0 0.0
2018-Jun-10 23:28N 37°54' W 122°22'  

Dump ship's entire track history